Time;durP1;ratioP1;P1;durP2;ratioP2;P2;SDS_P1;SDS_P2;PMS_P1;PMS_P2;Temp;Humidity;BMP_temperature;BMP_pressure;BME280_temperature;BME280_humidity;BME280_pressure;Samples;Min_cycle;Max_cycle;Signal;HPM_P1;HPM_P2
2021/04/12 00:01:51;;;;;;;16.00;10.75;;;;;;;11.19;51.65;100128.22;147710;1147;104876;-72
2021/04/12 00:05:01;;;;;;;15.78;11.55;;;;;;;11.14;52.09;100121.68;147746;1147;104464;-73
2021/04/12 00:08:12;;;;;;;25.02;19.73;;;;;;;11.10;52.79;100117.66;147694;1147;104454;-76
2021/04/12 00:11:27;;;;;;;15.60;12.43;;;;;;;11.09;52.51;100126.69;147738;1147;104552;-74
2021/04/12 00:14:35;;;;;;;15.78;11.35;;;;;;;11.03;53.10;100124.63;147774;1146;104485;-76
2021/04/12 00:17:42;;;;;;;11.97;9.08;;;;;;;10.97;52.78;100121.62;147745;1147;104620;-74
2021/04/12 00:20:52;;;;;;;13.38;9.25;;;;;;;10.94;53.51;100121.09;147790;1147;104592;-75
2021/04/12 00:24:00;;;;;;;14.55;8.68;;;;;;;10.89;53.38;100120.72;147635;1146;104450;-76
2021/04/12 00:27:09;;;;;;;10.63;7.65;;;;;;;10.87;54.07;100120.05;147221;1147;104436;-77
2021/04/12 00:30:21;;;;;;;8.70;6.80;;;;;;;10.83;53.40;100116.86;147737;1147;104480;-76
2021/04/12 00:33:29;;;;;;;8.45;6.42;;;;;;;10.78;53.83;100119.18;147260;1146;104622;-75
2021/04/12 00:36:47;;;;;;;10.90;7.10;;;;;;;10.74;53.84;100115.13;147652;1148;104452;-75
2021/04/12 00:39:55;;;;;;;8.27;6.00;;;;;;;10.72;54.18;100119.78;147743;1147;104522;-74
2021/04/12 00:43:20;;;;;;;8.68;6.33;;;;;;;10.68;53.28;100118.42;147718;1147;104478;-74
2021/04/12 00:46:45;;;;;;;7.43;5.73;;;;;;;10.65;54.54;100114.25;147815;1147;104905;-73
2021/04/12 00:50:20;;;;;;;7.70;5.42;;;;;;;10.69;53.88;100112.11;147709;1147;104701;-72
2021/04/12 00:53:53;;;;;;;8.08;5.67;;;;;;;10.69;54.32;100104.11;147518;1147;104558;-74
2021/04/12 00:57:02;;;;;;;8.73;5.67;;;;;;;10.71;54.05;100108.28;147416;1147;104553;-72
2021/04/12 01:00:12;;;;;;;7.80;5.50;;;;;;;10.72;54.24;100109.11;147514;1146;105047;-72
2021/04/12 01:03:40;;;;;;;9.63;6.03;;;;;;;10.68;54.24;100111.28;147246;1147;104470;-72
2021/04/12 01:07:07;;;;;;;8.80;5.75;;;;;;;10.65;53.76;100110.75;147738;1147;104575;-72
2021/04/12 01:10:35;;;;;;;7.83;5.97;;;;;;;10.61;54.23;100105.72;147598;1146;104471;-73
2021/04/12 01:14:29;;;;;;;7.95;5.90;;;;;;;10.54;53.91;100111.84;147209;1147;104479;-72
2021/04/12 01:17:58;;;;;;;14.28;9.15;;;;;;;10.49;54.41;100106.13;146973;1148;104739;-74
2021/04/12 01:21:30;;;;;;;9.68;6.75;;;;;;;10.43;53.75;100107.61;147115;1148;104553;-77
2021/04/12 01:25:17;;;;;;;7.75;5.92;;;;;;;10.36;54.70;100106.55;147112;1148;104531;-74
2021/04/12 01:28:57;;;;;;;6.93;5.67;;;;;;;10.28;54.76;100106.47;147187;1148;104604;-77
2021/04/12 01:32:32;;;;;;;8.23;5.60;;;;;;;10.17;54.06;100102.20;147168;1148;104719;-74
2021/04/12 01:35:55;;;;;;;7.93;5.60;;;;;;;10.09;54.64;100108.30;147346;1147;104559;-75
2021/04/12 01:39:07;;;;;;;8.23;5.63;;;;;;;10.02;54.20;100097.41;147303;1147;104589;-76
2021/04/12 01:42:25;;;;;;;7.30;5.30;;;;;;;9.97;54.80;100101.55;147335;1147;104574;-74
2021/04/12 01:45:37;;;;;;;8.03;5.90;;;;;;;9.94;54.96;100099.17;147535;1146;104516;-75
2021/04/12 01:48:54;;;;;;;8.88;5.62;;;;;;;9.86;54.60;100101.77;147477;1147;105023;-75
2021/04/12 01:52:18;;;;;;;6.28;5.33;;;;;;;9.78;54.94;100095.37;147322;1147;104566;-71
2021/04/12 01:55:32;;;;;;;7.35;5.70;;;;;;;9.69;54.71;100095.44;147580;1146;104450;-76
2021/04/12 01:58:45;;;;;;;7.70;5.28;;;;;;;9.59;54.86;100096.34;147730;1147;104523;-75
2021/04/12 02:02:12;;;;;;;7.15;5.00;;;;;;;9.52;54.73;100094.42;147742;1147;104863;-75
2021/04/12 02:05:49;;;;;;;8.63;5.62;;;;;;;9.43;54.85;100098.84;147692;1147;104522;-75
2021/04/12 02:08:59;;;;;;;7.40;5.30;;;;;;;9.32;54.77;100086.56;147748;1147;104563;-72
2021/04/12 02:12:14;;;;;;;7.43;5.43;;;;;;;9.22;54.57;100099.09;147669;1146;104594;-73
2021/04/12 02:15:25;;;;;;;7.30;4.75;;;;;;;9.13;54.80;100097.31;147759;1147;104812;-72
2021/04/12 02:18:45;;;;;;;7.92;5.28;;;;;;;9.06;54.78;100096.22;147609;1147;104538;-78
2021/04/12 02:21:58;;;;;;;7.00;5.58;;;;;;;8.99;55.29;100098.65;147762;1146;104455;-74
2021/04/12 02:25:09;;;;;;;7.40;5.15;;;;;;;8.92;54.83;100098.37;147733;1147;104475;-75
2021/04/12 02:28:25;;;;;;;7.60;5.63;;;;;;;8.84;55.48;100098.28;147644;1146;104454;-75
2021/04/12 02:31:42;;;;;;;7.03;5.10;;;;;;;8.77;55.31;100100.66;147312;1147;104585;-74
2021/04/12 02:34:56;;;;;;;9.18;5.47;;;;;;;8.69;55.82;100097.90;147755;1147;104510;-76
2021/04/12 02:38:25;;;;;;;6.50;5.35;;;;;;;8.63;55.36;100090.50;147698;1147;104531;-77
2021/04/12 02:41:50;;;;;;;8.03;5.83;;;;;;;8.58;55.27;100090.95;147777;1147;104441;-74
2021/04/12 02:45:15;;;;;;;8.03;5.37;;;;;;;8.55;55.57;100090.39;147663;1147;104893;-77
2021/04/12 02:48:32;;;;;;;9.18;5.50;;;;;;;8.49;55.36;100086.48;147430;1147;105063;-76
2021/04/12 02:51:46;;;;;;;7.25;5.53;;;;;;;8.41;55.16;100091.63;148104;1147;104482;-72
2021/04/12 02:55:16;;;;;;;7.15;5.33;;;;;;;8.36;55.68;100091.24;147575;1147;105026;-73
2021/04/12 02:58:49;;;;;;;8.00;5.35;;;;;;;8.32;55.90;100088.02;147516;1147;104458;-73
2021/04/12 03:02:26;;;;;;;7.70;5.80;;;;;;;8.28;56.32;100085.81;147453;1147;104479;-74
2021/04/12 03:05:53;;;;;;;9.65;6.30;;;;;;;8.25;55.68;100098.37;147476;1147;104630;-74
2021/04/12 03:09:34;;;;;;;10.53;6.10;;;;;;;8.23;55.94;100081.73;147700;1147;104895;-72
2021/04/12 03:13:05;;;;;;;10.03;6.37;;;;;;;8.19;56.01;100090.97;147165;1147;104747;-73
2021/04/12 03:16:25;;;;;;;8.75;6.25;;;;;;;8.19;56.18;100088.31;147771;1147;104465;-73
2021/04/12 03:19:54;;;;;;;8.90;6.10;;;;;;;8.19;55.84;100090.14;147622;1147;104514;-74
2021/04/12 03:23:19;;;;;;;9.78;6.70;;;;;;;8.18;56.80;100094.63;147805;1146;104550;-72
2021/04/12 03:26:44;;;;;;;12.17;6.20;;;;;;;8.22;56.72;100095.19;147825;1148;104432;-72
2021/04/12 03:30:01;;;;;;;9.40;6.30;;;;;;;8.26;57.38;100092.09;147712;1147;104991;-72
2021/04/12 03:33:15;;;;;;;9.28;6.50;;;;;;;8.31;56.58;100096.97;147780;1147;104591;-72
2021/04/12 03:36:28;;;;;;;10.40;6.28;;;;;;;8.33;56.67;100091.52;147739;1148;104470;-74
2021/04/12 03:39:45;;;;;;;8.08;5.90;;;;;;;8.37;56.45;100092.91;147372;1147;104476;-75
2021/04/12 03:43:21;;;;;;;11.23;6.53;;;;;;;8.35;57.29;100094.87;147327;1147;104570;-75
2021/04/12 03:46:53;;;;;;;8.73;6.30;;;;;;;8.32;57.34;100100.48;147582;1147;104584;-74
2021/04/12 03:50:15;;;;;;;8.10;6.23;;;;;;;8.30;57.29;100097.14;147763;1147;104877;-72
2021/04/12 03:53:52;;;;;;;9.05;6.45;;;;;;;8.30;57.19;100100.63;147733;1147;104546;-74
2021/04/12 03:57:19;;;;;;;8.80;6.10;;;;;;;8.30;57.02;100099.80;147532;1146;104607;-71
2021/04/12 04:00:46;;;;;;;9.18;6.62;;;;;;;8.28;56.86;100099.09;147312;1147;104444;-72
2021/04/12 04:04:26;;;;;;;14.95;7.30;;;;;;;8.24;56.88;100103.86;147416;1147;104476;-73
2021/04/12 04:08:02;;;;;;;10.33;7.77;;;;;;;8.22;57.35;100100.50;147820;1147;104527;-71
2021/04/12 04:11:36;;;;;;;11.30;6.75;;;;;;;8.18;57.05;100099.94;147643;1147;104556;-73
2021/04/12 04:15:06;;;;;;;12.43;6.87;;;;;;;8.13;57.17;100104.83;147812;1147;104527;-73
2021/04/12 04:18:30;;;;;;;10.05;6.85;;;;;;;8.11;57.26;100112.11;147577;1145;104514;-71
2021/04/12 04:22:03;;;;;;;10.87;6.77;;;;;;;8.04;57.01;100103.02;147837;1147;104953;-72
2021/04/12 04:25:14;;;;;;;;;;;;;;;8.01;57.30;100105.97;147798;1147;104461;-72
2021/04/12 04:28:56;;;;;;;9.88;6.53;;;;;;;7.98;57.71;100099.09;147789;1147;104579;-72
2021/04/12 04:32:15;;;;;;;10.28;7.03;;;;;;;7.99;57.20;100102.61;147679;1147;104604;-74
2021/04/12 04:35:56;;;;;;;9.57;6.67;;;;;;;8.03;56.88;100109.33;147829;1147;104503;-71
2021/04/12 04:39:40;;;;;;;9.85;6.72;;;;;;;8.19;56.50;100103.43;147806;1147;104549;-72
2021/04/12 04:43:09;;;;;;;13.08;7.45;;;;;;;8.39;57.71;100113.06;147203;1147;104637;-72
2021/04/12 04:46:37;;;;;;;11.38;7.78;;;;;;;8.58;57.79;100101.59;147607;1147;104498;-73
2021/04/12 04:50:05;;;;;;;11.90;7.10;;;;;;;8.79;58.25;100103.19;147743;1148;104614;-73
2021/04/12 04:53:25;;;;;;;11.50;6.50;;;;;;;9.08;58.27;100096.91;147809;1147;104516;-71
2021/04/12 04:56:39;;;;;;;15.17;7.33;;;;;;;9.38;58.15;100101.11;147746;1147;104546;-72
2021/04/12 05:03:28;;;;;;;45.63;23.27;;;;;;;9.90;57.90;100101.30;147967;1147;104604;-71
2021/04/12 05:07:06;;;;;;;43.47;23.90;;;;;;;10.12;57.70;100101.81;147785;1147;104540;-72
2021/04/12 05:10:55;;;;;;;21.27;13.75;;;;;;;10.33;57.58;100109.52;147776;1147;104460;-71
2021/04/12 05:14:39;;;;;;;14.25;10.23;;;;;;;10.55;57.87;100097.52;147098;1150;104654;-71
2021/04/12 05:17:57;;;;;;;21.85;14.07;;;;;;;10.74;57.83;100109.78;147148;1148;104668;-71
2021/04/12 05:21:33;;;;;;;15.73;10.30;;;;;;;10.86;57.82;100108.54;147704;1147;104633;-71
2021/04/12 05:24:57;;;;;;;16.00;9.10;;;;;;;10.94;57.27;100113.09;147808;1145;104540;-73
2021/04/12 05:28:13;;;;;;;17.77;10.43;;;;;;;10.99;57.47;100110.78;147784;1147;104540;-72
2021/04/12 05:31:40;;;;;;;13.20;8.27;;;;;;;11.04;57.93;100119.14;147692;1147;104540;-73
2021/04/12 05:34:58;;;;;;;13.65;8.15;;;;;;;11.10;57.89;100114.99;147528;1147;104567;-68
2021/04/12 05:38:18;;;;;;;10.78;7.15;;;;;;;11.14;57.53;100114.53;147331;1147;104608;-67
2021/04/12 05:41:37;;;;;;;17.50;9.70;;;;;;;11.17;57.59;100118.70;147353;1148;104531;-68
2021/04/12 05:44:58;;;;;;;12.23;7.40;;;;;;;11.22;57.69;100121.73;147303;1148;104455;-69
2021/04/12 05:48:33;;;;;;;13.13;8.20;;;;;;;11.28;57.74;100114.89;147448;1147;104540;-68
2021/04/12 05:52:00;;;;;;;9.30;7.00;;;;;;;11.33;57.70;100116.08;147361;1147;104632;-70
2021/04/12 05:55:23;;;;;;;13.37;7.90;;;;;;;11.43;57.50;100115.12;147561;1147;104612;-68
2021/04/12 05:58:39;;;;;;;10.47;6.90;;;;;;;11.50;57.62;100116.16;147247;1147;104473;-68
2021/04/12 06:02:06;;;;;;;9.57;7.37;;;;;;;11.58;57.22;100114.32;147364;1145;104471;-69
2021/04/12 06:05:21;;;;;;;9.93;7.28;;;;;;;11.66;57.18;100123.37;147343;1147;104457;-72
2021/04/12 06:08:39;;;;;;;12.10;8.77;;;;;;;11.71;56.95;100118.37;147642;1145;104500;-68
2021/04/12 06:12:15;;;;;;;11.53;8.93;;;;;;;11.73;56.68;100117.20;147471;1148;104592;-69
2021/04/12 06:15:53;;;;;;;11.97;8.53;;;;;;;11.81;56.82;100111.03;147235;1147;104528;-68
2021/04/12 06:19:34;;;;;;;11.00;8.30;;;;;;;11.91;56.97;100113.59;147359;1148;104559;-69
2021/04/12 06:23:07;;;;;;;11.00;7.90;;;;;;;11.97;57.20;100115.59;147588;1147;104471;-69
2021/04/12 06:26:42;;;;;;;12.20;7.87;;;;;;;12.04;57.35;100116.61;147677;1147;104465;-68
2021/04/12 06:30:03;;;;;;;12.17;7.60;;;;;;;12.12;56.95;100121.95;147446;1148;104604;-68
2021/04/12 06:33:21;;;;;;;9.00;7.00;;;;;;;12.18;56.84;100115.97;147693;1147;104540;-68
2021/04/12 06:36:47;;;;;;;14.50;8.00;;;;;;;12.28;56.43;100122.96;147604;1147;104503;-69
2021/04/12 06:40:38;;;;;;;8.45;6.80;;;;;;;12.36;56.08;100118.45;147378;1148;104537;-68
2021/04/12 06:44:17;;;;;;;13.53;7.30;;;;;;;12.46;56.22;100130.84;147337;1147;104995;-69
2021/04/12 06:47:49;;;;;;;10.90;6.97;;;;;;;12.54;56.00;100117.44;147289;1148;104589;-69
2021/04/12 06:51:39;;;;;;;11.37;7.53;;;;;;;12.64;56.07;100125.29;147520;1147;104465;-72
2021/04/12 06:55:09;;;;;;;12.15;7.50;;;;;;;12.72;56.00;100115.41;147629;1147;104543;-70
2021/04/12 06:58:47;;;;;;;10.68;7.00;;;;;;;12.81;55.72;100116.22;147359;1147;104459;-71
2021/04/12 07:02:21;;;;;;;10.20;7.17;;;;;;;12.90;55.90;100115.19;147023;1148;104460;-68
2021/04/12 07:05:50;;;;;;;9.13;6.80;;;;;;;13.02;55.78;100122.86;147129;1148;104598;-68
2021/04/12 07:09:15;;;;;;;9.65;6.97;;;;;;;13.11;55.62;100119.16;147130;1148;104618;-69
2021/04/12 07:12:50;;;;;;;9.43;7.33;;;;;;;13.22;55.52;100124.14;147044;1148;104473;-68
2021/04/12 07:16:26;;;;;;;10.98;7.17;;;;;;;13.30;55.55;100124.13;147044;1148;104487;-69
2021/04/12 07:20:04;;;;;;;8.98;7.45;;;;;;;13.42;55.64;100131.80;147079;1148;104540;-71
2021/04/12 07:23:40;;;;;;;10.03;7.83;;;;;;;13.51;55.18;100120.85;147142;1148;104908;-70
2021/04/12 07:27:22;;;;;;;11.22;8.10;;;;;;;13.60;55.15;100118.95;147358;1147;104498;-70
2021/04/12 07:31:05;;;;;;;10.35;7.22;;;;;;;13.70;55.26;100114.22;147162;1148;104451;-68
2021/04/12 07:34:53;;;;;;;9.78;7.03;;;;;;;13.82;55.26;100111.96;147096;1148;104544;-68
2021/04/12 07:38:46;;;;;;;13.67;6.50;;;;;;;13.94;54.49;100120.42;146787;1148;104459;-69
2021/04/12 07:42:23;;;;;;;7.87;6.20;;;;;;;14.04;54.26;100112.97;147055;1148;104554;-71
2021/04/12 07:46:07;;;;;;;9.83;6.33;;;;;;;14.13;54.00;100109.21;147229;1148;104521;-69
2021/04/12 07:49:57;;;;;;;7.87;6.00;;;;;;;14.25;53.95;100114.98;147007;1148;104543;-71
2021/04/12 07:53:37;;;;;;;9.30;6.35;;;;;;;14.36;54.31;100107.50;146907;1148;104543;-69
2021/04/12 07:57:15;;;;;;;8.70;6.20;;;;;;;14.47;54.05;100112.44;146977;1148;104535;-69
2021/04/12 08:00:52;;;;;;;8.03;5.63;;;;;;;14.57;54.20;100121.13;147024;1148;104537;-70
2021/04/12 08:04:32;;;;;;;7.80;5.65;;;;;;;14.68;53.17;100114.45;147047;1148;104496;-70
2021/04/12 08:08:17;;;;;;;7.83;4.97;;;;;;;14.78;52.75;100120.41;147048;1148;104474;-69
2021/04/12 08:11:59;;;;;;;8.68;5.20;;;;;;;14.87;52.50;100111.23;147068;1148;104535;-69
2021/04/12 08:15:40;;;;;;;7.35;5.33;;;;;;;14.97;51.97;100112.81;147058;1148;104538;-70
2021/04/12 08:19:18;;;;;;;9.08;5.90;;;;;;;15.06;52.66;100119.77;147614;1148;104533;-72
2021/04/12 08:23:05;;;;;;;8.10;6.30;;;;;;;15.14;52.26;100116.15;147399;1146;104509;-70
2021/04/12 08:26:48;;;;;;;7.95;4.90;;;;;;;15.20;52.19;100123.45;147663;1147;104452;-69
2021/04/12 08:30:27;;;;;;;7.57;5.40;;;;;;;15.30;51.72;100119.47;147476;1147;104457;-69
2021/04/12 08:34:12;;;;;;;7.65;5.17;;;;;;;15.39;51.89;100125.56;147629;1148;104465;-69
2021/04/12 08:37:56;;;;;;;7.83;5.58;;;;;;;15.48;52.64;100124.45;147498;1148;104883;-70
2021/04/12 08:41:49;;;;;;;9.03;5.97;;;;;;;15.51;52.21;100118.70;147474;1146;104492;-70
2021/04/12 08:45:20;;;;;;;8.58;6.05;;;;;;;15.59;51.17;100116.91;146483;1150;105090;-69
2021/04/12 08:49:05;;;;;;;8.10;5.78;;;;;;;15.68;50.49;100113.08;147526;1147;104573;-70
2021/04/12 08:52:40;;;;;;;8.80;6.00;;;;;;;15.73;51.12;100112.53;147613;1147;104940;-69
2021/04/12 08:56:17;;;;;;;8.65;5.70;;;;;;;15.78;50.94;100108.28;147054;1147;104570;-69
2021/04/12 09:00:09;;;;;;;8.90;5.53;;;;;;;15.87;51.06;100111.66;147423;1147;104480;-71
2021/04/12 09:03:48;;;;;;;6.95;4.75;;;;;;;15.97;50.35;100114.86;147646;1146;104847;-70
2021/04/12 09:07:28;;;;;;;10.67;6.00;;;;;;;16.03;51.04;100110.58;147575;1148;104459;-69
2021/04/12 09:10:57;;;;;;;8.30;5.50;;;;;;;16.07;50.61;100104.63;147584;1146;104540;-69
2021/04/12 09:14:24;;;;;;;7.17;4.90;;;;;;;16.13;50.36;100112.94;147525;1147;104519;-69
2021/04/12 09:17:45;;;;;;;9.73;4.65;;;;;;;16.20;50.21;100111.15;147659;1147;104468;-70
2021/04/12 09:21:07;;;;;;;8.05;4.40;;;;;;;16.25;49.93;100114.11;147374;1147;104473;-70
2021/04/12 09:24:46;;;;;;;5.30;4.20;;;;;;;16.28;48.78;100111.00;147479;1146;104467;-70
2021/04/12 09:28:04;;;;;;;5.97;4.07;;;;;;;16.28;49.90;100114.55;147384;1147;104510;-69
2021/04/12 09:31:35;;;;;;;7.22;4.08;;;;;;;16.33;49.59;100105.88;147497;1147;104596;-69
2021/04/12 09:35:11;;;;;;;6.20;3.70;;;;;;;16.44;49.58;100104.53;147658;1147;104537;-68
2021/04/12 09:38:55;;;;;;;6.25;3.80;;;;;;;16.54;49.53;100107.70;147630;1147;104543;-69
2021/04/12 09:42:41;;;;;;;4.57;3.60;;;;;;;16.66;49.48;100113.38;147648;1147;104913;-69
2021/04/12 09:46:27;;;;;;;5.53;4.50;;;;;;;16.66;48.99;100110.69;147001;1150;104732;-71
2021/04/12 09:50:05;;;;;;;6.35;3.75;;;;;;;16.60;49.28;100101.53;146930;1147;104623;-70
2021/04/12 09:53:40;;;;;;;4.78;4.05;;;;;;;16.68;48.63;100103.24;147667;1147;104430;-72
2021/04/12 09:57:21;;;;;;;6.67;4.58;;;;;;;16.76;48.81;100095.00;147668;1148;104535;-70
2021/04/12 10:00:38;;;;;;;7.63;4.63;;;;;;;16.81;48.48;100103.33;147466;1148;104516;-69
2021/04/12 10:04:12;;;;;;;5.23;4.23;;;;;;;16.92;48.46;100103.83;147185;1147;104511;-69
2021/04/12 10:07:39;;;;;;;7.47;4.57;;;;;;;17.00;48.33;100109.09;147086;1147;104548;-69
2021/04/12 10:11:00;;;;;;;5.53;4.30;;;;;;;17.11;48.26;100110.37;147622;1147;104525;-70
2021/04/12 10:14:14;;;;;;;7.67;4.15;;;;;;;17.16;48.05;100110.61;147644;1147;104502;-70
2021/04/12 10:17:22;;;;;;;8.37;4.33;;;;;;;17.14;47.66;100108.11;147666;1147;104432;-70
2021/04/12 10:20:29;;;;;;;12.17;4.40;;;;;;;17.12;48.38;100117.44;147663;1147;104979;-70
2021/04/12 10:23:35;;;;;;;6.22;4.00;;;;;;;17.07;48.37;100112.63;147526;1146;104701;-70
2021/04/12 10:26:45;;;;;;;7.50;4.37;;;;;;;17.12;48.44;100110.17;147536;1147;106029;-70
2021/04/12 10:29:54;;;;;;;6.08;4.55;;;;;;;17.19;47.51;100116.44;147450;1147;104468;-69
2021/04/12 10:33:02;;;;;;;5.00;3.98;;;;;;;17.26;47.59;100117.31;147601;1147;104554;-70
2021/04/12 10:36:11;;;;;;;8.38;4.30;;;;;;;17.34;47.75;100110.92;147609;1146;104454;-72
2021/04/12 10:39:27;;;;;;;5.25;4.20;;;;;;;17.42;47.72;100112.61;147699;1147;104613;-69
2021/04/12 10:42:42;;;;;;;7.57;4.90;;;;;;;17.64;47.34;100118.69;147690;1147;104463;-71
2021/04/12 10:45:49;;;;;;;6.03;5.00;;;;;;;17.80;47.58;100112.09;147372;1147;104460;-70
2021/04/12 10:48:55;;;;;;;5.47;4.30;;;;;;;17.94;47.28;100108.42;147518;1147;104549;-70
2021/04/12 10:52:09;;;;;;;11.73;5.03;;;;;;;18.01;46.99;100106.58;147651;1147;104460;-71
2021/04/12 10:55:20;;;;;;;8.25;4.60;;;;;;;18.09;46.81;100105.55;147341;1147;104620;-70
2021/04/12 10:58:44;;;;;;;10.48;5.17;;;;;;;18.09;46.32;100107.39;147241;1146;104534;-69
2021/04/12 11:01:53;;;;;;;6.45;5.25;;;;;;;18.19;46.22;100105.97;147097;1148;104463;-69
2021/04/12 11:05:06;;;;;;;6.93;5.27;;;;;;;18.33;45.84;100100.57;147095;1147;104448;-70
2021/04/12 11:08:27;;;;;;;7.37;4.87;;;;;;;18.53;46.15;100111.36;147386;1147;104877;-69
2021/04/12 11:11:36;;;;;;;6.78;4.80;;;;;;;18.77;46.36;100118.83;147272;1147;104480;-69
2021/04/12 11:14:50;;;;;;;5.72;5.12;;;;;;;18.85;45.48;100117.80;147399;1147;104492;-70
2021/04/12 11:18:02;;;;;;;7.47;5.65;;;;;;;18.81;44.51;100113.87;147309;1147;104432;-71
2021/04/12 11:21:20;;;;;;;6.65;5.00;;;;;;;18.83;45.38;100109.90;147397;1147;104546;-70
2021/04/12 11:24:32;;;;;;;6.30;5.50;;;;;;;18.82;45.47;100119.06;147230;1147;104503;-71
2021/04/12 11:28:00;;;;;;;7.28;5.47;;;;;;;18.90;44.99;100106.34;147642;1147;104471;-69
2021/04/12 11:31:16;;;;;;;6.72;4.30;;;;;;;19.07;45.16;100104.84;147637;1147;104441;-70
2021/04/12 11:34:28;;;;;;;7.35;5.40;;;;;;;19.28;44.62;100102.91;147691;1147;104547;-70
2021/04/12 11:37:37;;;;;;;;;;;;;;;19.46;45.27;100104.91;147663;1148;104559;-70
2021/04/12 11:40:51;;;;;;;6.37;5.67;;;;;;;19.71;44.66;100102.31;147687;1147;104506;-70
2021/04/12 11:43:59;;;;;;;8.35;4.87;;;;;;;19.84;44.41;100104.95;147660;1146;104642;-70
2021/04/12 11:47:26;;;;;;;8.38;5.12;;;;;;;20.02;44.16;100108.83;147672;1146;104556;-71
2021/04/12 11:50:36;;;;;;;8.65;5.75;;;;;;;20.13;44.24;100100.81;147648;1147;105404;-71
2021/04/12 11:53:49;;;;;;;7.62;6.03;;;;;;;20.25;42.76;100097.41;147658;1147;104450;-70
2021/04/12 11:57:00;;;;;;;7.72;5.67;;;;;;;20.16;44.13;100110.38;147644;1147;104468;-71
2021/04/12 12:00:10;;;;;;;8.68;6.40;;;;;;;20.16;42.87;100105.77;147459;1147;104457;-71
2021/04/12 12:03:31;;;;;;;7.25;6.08;;;;;;;20.12;43.43;100101.03;147617;1146;104551;-71
2021/04/12 12:06:45;;;;;;;7.50;6.65;;;;;;;20.04;42.73;100109.43;147628;1147;104551;-70
2021/04/12 12:09:55;;;;;;;7.20;6.40;;;;;;;19.88;43.00;100113.47;147487;1146;104470;-71
2021/04/12 12:13:03;;;;;;;7.37;6.62;;;;;;;19.84;43.36;100107.66;147708;1147;104542;-71
2021/04/12 12:16:20;;;;;;;9.33;6.72;;;;;;;19.84;43.44;100118.48;147682;1146;104604;-70
2021/04/12 12:19:31;;;;;;;8.93;6.40;;;;;;;19.72;42.51;100114.81;147687;1147;104441;-71
2021/04/12 12:22:49;;;;;;;7.50;5.83;;;;;;;19.66;42.48;100115.66;147659;1147;104614;-71
2021/04/12 12:25:58;;;;;;;7.62;5.40;;;;;;;19.45;41.20;100125.73;147607;1146;104557;-70
2021/04/12 12:29:11;;;;;;;14.28;7.90;;;;;;;19.20;42.26;100128.33;147638;1146;104913;-70
2021/04/12 12:32:36;;;;;;;14.58;9.08;;;;;;;19.02;43.15;100134.41;147503;1146;104582;-70
2021/04/12 12:35:51;;;;;;;13.80;11.18;;;;;;;18.73;42.58;100133.80;147571;1147;104467;-70
2021/04/12 12:39:09;;;;;;;16.65;13.10;;;;;;;18.36;43.80;100130.70;147476;1146;104543;-71
2021/04/12 12:42:15;;;;;;;18.67;13.78;;;;;;;18.31;43.69;100138.59;147625;1147;104547;-71
2021/04/12 12:45:25;;;;;;;20.23;15.25;;;;;;;18.22;43.76;100137.12;147711;1146;104458;-71
2021/04/12 12:48:33;;;;;;;84.58;70.95;;;;;;;18.14;43.27;100134.63;147664;1146;104657;-70
2021/04/12 12:51:40;;;;;;;22.42;19.57;;;;;;;18.04;43.69;100137.73;147654;1147;104528;-70
2021/04/12 12:54:49;;;;;;;20.57;17.90;;;;;;;17.74;44.03;100150.69;147446;1147;104511;-69
2021/04/12 12:57:55;;;;;;;22.40;17.90;;;;;;;17.61;44.27;100146.06;147623;1147;104460;-71
2021/04/12 13:01:01;;;;;;;22.42;17.37;;;;;;;17.39;44.85;100148.06;147659;1147;104463;-70
2021/04/12 13:04:14;;;;;;;23.07;20.57;;;;;;;17.22;45.17;100156.47;147635;1146;104577;-69
2021/04/12 13:07:21;;;;;;;26.07;22.35;;;;;;;16.95;45.70;100154.66;147369;1147;104447;-70
2021/04/12 13:10:36;;;;;;;26.35;22.25;;;;;;;16.71;45.66;100158.62;147164;1147;104535;-68
2021/04/12 13:13:39;;;;;;;28.45;23.47;;;;;;;16.46;46.40;100175.19;147210;1147;104464;-70
2021/04/12 13:16:44;;;;;;;50.90;33.97;;;;;;;16.31;47.31;100172.56;147463;1146;104524;-70
2021/04/12 13:19:51;;;;;;;68.70;45.85;;;;;;;16.08;47.32;100180.81;147438;1146;104905;-70
2021/04/12 13:23:07;;;;;;;35.68;27.20;;;;;;;15.96;47.57;100191.25;147646;1147;104544;-70
2021/04/12 13:26:21;;;;;;;31.12;24.27;;;;;;;15.76;48.29;100204.48;147608;1147;104492;-70
2021/04/12 13:29:29;;;;;;;32.63;25.15;;;;;;;15.53;48.13;100198.34;147667;1146;105802;-69
2021/04/12 13:32:36;;;;;;;33.67;26.50;;;;;;;15.37;49.21;100202.89;147665;1147;104467;-71
2021/04/12 13:35:42;;;;;;;30.45;24.02;;;;;;;15.18;48.66;100196.20;147656;1147;104617;-72
2021/04/12 13:38:49;;;;;;;29.18;23.10;;;;;;;15.06;49.80;100211.13;147724;1147;104491;-69
2021/04/12 13:41:53;;;;;;;48.77;28.80;;;;;;;14.88;50.59;100204.25;147840;1146;104511;-73
2021/04/12 13:45:00;;;;;;;29.83;23.93;;;;;;;14.77;49.14;100206.55;147618;1146;104460;-70
2021/04/12 13:48:09;;;;;;;29.20;24.15;;;;;;;14.62;49.83;100209.18;147734;1146;104538;-71
2021/04/12 13:51:25;;;;;;;29.18;23.60;;;;;;;14.48;51.04;100230.39;147446;1147;104710;-72
2021/04/12 13:54:31;;;;;;;38.48;25.57;;;;;;;14.26;50.97;100226.70;147454;1147;104511;-72
2021/04/12 13:57:41;;;;;;;36.68;25.57;;;;;;;14.09;51.35;100230.50;147621;1147;104581;-70
2021/04/12 14:00:50;;;;;;;41.42;28.67;;;;;;;13.91;50.75;100228.06;147611;1146;104549;-69
2021/04/12 14:04:00;;;;;;;51.90;33.08;;;;;;;13.84;52.13;100235.98;147620;1147;104477;-71
2021/04/12 14:07:12;;;;;;;56.58;37.60;;;;;;;13.75;53.58;100245.91;147641;1147;104603;-68
2021/04/12 14:10:23;;;;;;;165.75;78.70;;;;;;;13.66;51.96;100241.58;147699;1148;104540;-72
2021/04/12 14:13:30;;;;;;;99.65;58.63;;;;;;;13.60;52.23;100236.91;147648;1147;104493;-68
2021/04/12 14:16:39;;;;;;;82.63;48.27;;;;;;;13.52;52.19;100250.36;147422;1147;104476;-69
2021/04/12 14:19:46;;;;;;;56.88;36.50;;;;;;;13.48;53.19;100251.70;147242;1147;104922;-68
2021/04/12 14:22:53;;;;;;;64.75;47.13;;;;;;;13.40;52.17;100252.56;147161;1147;104565;-71
2021/04/12 14:26:01;;;;;;;48.00;32.88;;;;;;;13.29;54.51;100261.76;147679;1146;104472;-72
2021/04/12 14:29:08;;;;;;;47.63;31.73;;;;;;;13.13;55.37;100261.80;147298;1147;104471;-71
2021/04/12 14:32:15;;;;;;;47.78;32.10;;;;;;;13.05;55.11;100269.83;147490;1147;104540;-69
2021/04/12 14:35:25;;;;;;;38.17;28.03;;;;;;;12.97;54.61;100276.03;147651;1146;104557;-70
2021/04/12 14:38:29;;;;;;;47.13;30.70;;;;;;;12.88;55.94;100283.24;148937;1145;104498;-70
2021/04/12 14:41:35;;;;;;;61.95;39.70;;;;;;;12.92;53.01;100273.87;148154;1147;104473;-75
2021/04/12 14:44:43;;;;;;;37.20;25.75;;;;;;;12.98;52.89;100279.56;148195;1146;104454;-74
2021/04/12 14:47:56;;;;;;;37.33;24.73;;;;;;;13.04;53.66;100289.60;147883;1148;104532;-75
2021/04/12 14:51:06;;;;;;;39.67;25.82;;;;;;;12.96;53.74;100288.59;147845;1146;104522;-68
2021/04/12 14:54:14;;;;;;;37.78;25.02;;;;;;;12.81;54.15;100290.27;147606;1146;104759;-67
2021/04/12 14:57:20;;;;;;;34.00;22.53;;;;;;;12.70;54.15;100312.00;147673;1148;104448;-71
2021/04/12 15:00:32;;;;;;;47.88;32.67;;;;;;;12.62;53.91;100301.30;147622;1147;104647;-68
2021/04/12 15:03:53;;;;;;;26.35;20.62;;;;;;;12.57;54.70;100313.34;147638;1146;104596;-67
2021/04/12 15:07:04;;;;;;;52.08;21.85;;;;;;;12.38;54.12;100319.81;147602;1147;104528;-69
2021/04/12 15:10:16;;;;;;;53.00;27.93;;;;;;;12.27;54.73;100332.66;147442;1148;104469;-70
2021/04/12 15:13:29;;;;;;;47.08;32.83;;;;;;;12.20;54.57;100336.97;147787;1147;104497;-75
2021/04/12 15:16:47;;;;;;;33.60;21.62;;;;;;;12.09;54.37;100343.47;147836;1147;104547;-76
2021/04/12 15:20:00;;;;;;;32.05;18.57;;;;;;;11.99;54.57;100346.27;147806;1147;104562;-71